createdAt,value
2018-10-05T00:01:04.135Z,36.20
2018-10-05T00:03:33.002Z,36.20
2018-10-05T00:06:02.192Z,36.30
2018-10-05T00:08:31.489Z,36.20
2018-10-05T00:11:00.466Z,36.30
2018-10-05T00:13:29.402Z,36.20
2018-10-05T00:15:58.268Z,36.20
2018-10-05T00:18:27.707Z,36.30
2018-10-05T00:20:56.851Z,36.30
2018-10-05T00:23:25.707Z,36.30
2018-10-05T00:25:54.562Z,36.30
2018-10-05T00:28:23.432Z,36.30
2018-10-05T00:30:52.308Z,36.30
2018-10-05T00:33:21.475Z,36.30
2018-10-05T00:35:50.606Z,36.30
2018-10-05T00:38:19.476Z,36.30
2018-10-05T00:40:48.391Z,36.20
2018-10-05T00:43:17.278Z,36.20
2018-10-05T00:45:46.148Z,36.20
2018-10-05T00:48:14.999Z,36.20
2018-10-05T00:50:43.880Z,36.20
2018-10-05T00:53:12.863Z,36.30
2018-10-05T00:55:41.615Z,36.30
2018-10-05T00:58:10.483Z,36.30
2018-10-05T01:00:39.448Z,36.20
2018-10-05T01:03:08.824Z,36.30
2018-10-05T01:05:38.046Z,36.30
2018-10-05T01:08:06.928Z,36.30
2018-10-05T01:10:35.827Z,36.30
2018-10-05T01:13:04.980Z,36.30
2018-10-05T01:15:34.120Z,36.30
2018-10-05T01:18:02.979Z,36.30
2018-10-05T01:20:31.839Z,36.50
2018-10-05T01:23:00.735Z,36.50
2018-10-05T01:25:29.585Z,36.50
2018-10-05T01:27:58.701Z,36.50
2018-10-05T01:30:27.554Z,36.50
2018-10-05T01:32:56.728Z,36.50
2018-10-05T01:35:25.594Z,36.50
2018-10-05T01:37:54.459Z,36.50
2018-10-05T01:40:23.319Z,36.50
2018-10-05T01:42:52.501Z,36.50
2018-10-05T01:45:21.372Z,36.50
2018-10-05T01:47:50.223Z,36.50
2018-10-05T01:50:19.099Z,36.30
2018-10-05T01:52:48.011Z,36.50
2018-10-05T01:55:17.199Z,36.50
2018-10-05T01:57:46.355Z,36.50
2018-10-05T02:00:15.223Z,36.60
2018-10-05T02:02:44.184Z,36.60
2018-10-05T02:05:12.953Z,36.60
2018-10-05T02:07:41.796Z,36.60
2018-10-05T02:10:10.652Z,36.60
2018-10-05T02:12:39.799Z,36.60
2018-10-05T02:15:08.675Z,36.60
2018-10-05T02:17:37.564Z,36.60
2018-10-05T02:20:06.465Z,36.60
2018-10-05T02:22:35.318Z,36.60
2018-10-05T02:25:04.264Z,36.60
2018-10-05T02:27:33.425Z,36.60
2018-10-05T02:30:02.226Z,36.60
2018-10-05T02:32:31.091Z,36.60
2018-10-05T02:35:00.187Z,36.60
2018-10-05T02:37:29.328Z,36.50
2018-10-05T02:39:58.596Z,36.50
2018-10-05T02:42:27.513Z,36.50
2018-10-05T02:44:56.591Z,36.50
2018-10-05T02:47:25.442Z,36.50
2018-10-05T02:49:55.711Z,36.50
2018-10-05T02:52:25.948Z,36.50
2018-10-05T02:54:58.612Z,36.50
2018-10-05T02:57:28.162Z,36.50
2018-10-05T02:59:57.067Z,36.50
2018-10-05T03:02:32.430Z,36.50
2018-10-05T03:05:01.307Z,36.50
2018-10-05T03:07:31.016Z,36.50
2018-10-05T03:10:01.147Z,36.50
2018-10-05T03:12:30.362Z,36.50
2018-10-05T03:14:59.499Z,36.50
2018-10-05T03:17:28.586Z,36.50
2018-10-05T03:19:57.501Z,36.50
2018-10-05T03:22:26.558Z,36.50
2018-10-05T03:24:55.430Z,36.50
2018-10-05T03:27:24.289Z,36.50
2018-10-05T03:29:53.171Z,36.50
2018-10-05T03:32:22.024Z,36.60
2018-10-05T03:34:51.773Z,36.60
2018-10-05T03:44:22.072Z,36.60
2018-10-05T03:46:59.348Z,36.90
2018-10-05T03:49:30.588Z,37.20
2018-10-05T03:52:02.140Z,37.10
2018-10-05T03:55:43.372Z,37.10
2018-10-05T03:58:24.160Z,37.10
2018-10-05T04:00:54.369Z,36.90
2018-10-05T04:03:25.821Z,37.10
2018-10-05T04:06:40.596Z,36.90
2018-10-05T04:09:20.904Z,36.90
2018-10-05T04:11:52.673Z,36.90
2018-10-05T04:17:33.734Z,36.90
2018-10-05T04:20:04.274Z,36.90
2018-10-05T04:22:34.408Z,36.90
2018-10-05T04:25:05.155Z,36.90
2018-10-05T04:27:34.179Z,36.80
2018-10-05T04:30:18.818Z,36.80
2018-10-05T04:33:02.585Z,36.80
2018-10-05T04:35:34.959Z,36.80
2018-10-05T04:38:04.290Z,36.60
2018-10-05T04:40:33.423Z,36.60
2018-10-05T04:43:02.295Z,36.60
2018-10-05T04:45:31.146Z,36.60
2018-10-05T04:48:01.004Z,36.50
2018-10-05T04:50:29.896Z,36.50
2018-10-05T04:52:59.155Z,36.50
2018-10-05T04:55:28.028Z,36.50
2018-10-05T04:57:56.915Z,36.50
2018-10-05T05:00:25.806Z,36.50
2018-10-05T05:02:55.070Z,36.50
2018-10-05T05:05:23.932Z,36.50
2018-10-05T05:07:53.181Z,36.30
2018-10-05T05:10:22.684Z,36.30
2018-10-05T05:12:51.574Z,36.30
2018-10-05T05:15:20.958Z,36.30
2018-10-05T05:17:49.840Z,36.30
2018-10-05T05:20:18.682Z,36.30
2018-10-05T05:22:47.550Z,36.30
2018-10-05T05:25:16.434Z,36.30
2018-10-05T05:27:45.530Z,36.30
2018-10-05T05:30:14.396Z,36.30
2018-10-05T05:32:43.479Z,36.30
2018-10-05T05:35:12.592Z,36.30
2018-10-05T05:37:41.794Z,36.30
2018-10-05T05:40:10.716Z,36.20
2018-10-05T05:42:39.998Z,36.20
2018-10-05T05:45:08.890Z,36.20
2018-10-05T05:47:37.765Z,36.20
2018-10-05T05:50:06.626Z,36.20
2018-10-05T05:52:35.499Z,36.20
2018-10-05T05:55:04.348Z,36.20
2018-10-05T05:57:33.290Z,36.20
2018-10-05T06:00:02.207Z,36.20
2018-10-05T06:02:31.539Z,36.20
2018-10-05T06:05:01.060Z,36.20
2018-10-05T06:07:30.310Z,36.00
2018-10-05T06:09:59.165Z,36.00
2018-10-05T06:12:28.028Z,36.00
2018-10-05T06:14:56.919Z,36.00
2018-10-05T06:17:25.803Z,36.00
2018-10-05T06:19:55.079Z,36.00
2018-10-05T06:22:24.319Z,36.00
2018-10-05T06:24:53.366Z,35.90
2018-10-05T06:27:22.296Z,35.90
2018-10-05T06:29:51.135Z,35.90
2018-10-05T06:32:20.253Z,35.90
2018-10-05T06:34:49.235Z,35.90
2018-10-05T06:37:18.124Z,35.90
2018-10-05T06:39:46.983Z,35.90
2018-10-05T06:42:15.957Z,35.90
2018-10-05T06:44:44.733Z,37.50
2018-10-05T06:47:13.838Z,38.80
2018-10-05T06:49:42.691Z,38.40
2018-10-05T06:52:11.628Z,37.20
2018-10-05T06:54:40.474Z,36.50
2018-10-05T06:57:09.766Z,35.70
2018-10-05T06:59:38.626Z,34.70
2018-10-05T07:02:07.649Z,34.10
2018-10-05T07:04:36.786Z,33.40
2018-10-05T07:07:05.651Z,32.90
2018-10-05T07:09:34.873Z,32.20
2018-10-05T07:12:03.759Z,31.70
2018-10-05T07:14:32.922Z,31.40
2018-10-05T07:17:01.807Z,32.20
2018-10-05T07:19:30.638Z,32.50
2018-10-05T07:21:59.520Z,32.60
2018-10-05T07:24:28.486Z,32.60
2018-10-05T07:26:57.788Z,32.60
2018-10-05T07:29:26.648Z,32.60
2018-10-05T07:31:55.553Z,32.60
2018-10-05T07:34:24.574Z,32.80
2018-10-05T07:36:53.982Z,32.80
2018-10-05T07:39:23.150Z,32.90
2018-10-05T07:41:52.047Z,33.10
2018-10-05T07:44:20.971Z,33.20
2018-10-05T07:46:49.832Z,33.20
2018-10-05T07:49:18.700Z,33.40
2018-10-05T07:51:47.595Z,33.50
2018-10-05T07:54:16.447Z,33.70
2018-10-05T07:56:45.650Z,34.80
2018-10-05T07:59:14.576Z,35.70
2018-10-05T08:01:43.784Z,35.10
2018-10-05T08:04:12.985Z,34.40
2018-10-05T08:06:41.843Z,33.80
2018-10-05T08:09:11.050Z,33.10
2018-10-05T08:11:40.171Z,32.80
2018-10-05T08:14:09.549Z,32.20
2018-10-05T08:16:38.400Z,31.90
2018-10-05T08:19:07.247Z,31.30
2018-10-05T08:21:36.495Z,31.00
2018-10-05T08:24:05.635Z,30.30
2018-10-05T08:26:34.525Z,29.70
2018-10-05T08:29:03.664Z,29.50
2018-10-05T08:31:32.518Z,29.10
2018-10-05T08:34:01.738Z,28.70
2018-10-05T08:36:30.575Z,28.40
2018-10-05T08:38:59.478Z,28.00
2018-10-05T08:41:28.350Z,27.70
2018-10-05T08:43:57.207Z,27.50
2018-10-05T08:46:26.086Z,27.20
2018-10-05T08:48:55.332Z,26.90
2018-10-05T08:51:24.179Z,26.60
2018-10-05T08:53:53.061Z,26.40
2018-10-05T08:56:22.032Z,26.20
2018-10-05T08:58:50.875Z,26.00
2018-10-05T09:01:20.003Z,25.90
2018-10-05T09:03:49.328Z,25.70
2018-10-05T09:06:18.202Z,25.40
2018-10-05T09:08:47.086Z,25.20
2018-10-05T09:11:16.669Z,25.00
2018-10-05T09:13:45.522Z,24.80
2018-10-05T09:16:14.839Z,24.70
2018-10-05T09:18:44.606Z,24.50
2018-10-05T09:21:13.464Z,24.30
2018-10-05T09:23:42.314Z,24.00
2018-10-05T09:26:11.397Z,23.60
2018-10-05T09:28:40.595Z,23.30
2018-10-05T09:31:09.515Z,23.00
2018-10-05T09:33:39.226Z,22.80
2018-10-05T09:36:08.608Z,22.60
2018-10-05T09:38:37.662Z,22.40
2018-10-05T09:41:07.118Z,22.30
2018-10-05T09:43:35.978Z,22.20
2018-10-05T09:46:06.068Z,22.10
2018-10-05T09:48:35.138Z,22.10
2018-10-05T09:51:04.008Z,22.00
2018-10-05T09:53:32.865Z,22.00
2018-10-05T09:56:01.886Z,22.00
2018-10-05T09:58:30.770Z,21.90
2018-10-05T10:01:05.739Z,21.90
2018-10-05T10:03:36.353Z,21.90
2018-10-05T10:06:06.035Z,21.80
2018-10-05T10:08:35.166Z,21.70
2018-10-05T10:11:04.266Z,21.70
2018-10-05T10:13:33.128Z,21.60
2018-10-05T10:16:02.443Z,21.60
2018-10-05T10:18:32.676Z,21.60
2018-10-05T10:21:03.256Z,21.60
2018-10-05T10:23:34.938Z,21.60
2018-10-05T10:26:05.108Z,21.50
2018-10-05T10:28:34.417Z,21.60
2018-10-05T10:31:03.681Z,21.50
2018-10-05T10:33:32.615Z,21.50
2018-10-05T10:36:01.730Z,21.50
2018-10-05T10:38:30.697Z,21.50
2018-10-05T10:41:00.187Z,21.40
2018-10-05T10:43:30.030Z,21.50
2018-10-05T10:45:59.524Z,21.40
2018-10-05T10:48:29.240Z,21.30
2018-10-05T10:51:16.874Z,21.30
2018-10-05T10:53:47.789Z,21.30
2018-10-05T10:56:19.960Z,21.30
2018-10-05T10:58:50.332Z,21.30
2018-10-05T11:01:19.973Z,21.30
2018-10-05T11:03:49.304Z,21.20
2018-10-05T11:06:18.714Z,21.20
2018-10-05T11:08:48.581Z,21.20
2018-10-05T11:11:17.985Z,21.10
2018-10-05T11:13:46.942Z,21.10
2018-10-05T11:16:16.444Z,21.10
2018-10-05T11:18:45.996Z,21.00
2018-10-05T11:21:16.088Z,20.90
2018-10-05T11:23:45.809Z,20.80
2018-10-05T11:26:15.214Z,20.80
2018-10-05T11:28:44.789Z,20.70
2018-10-05T11:31:14.557Z,20.80
2018-10-05T11:33:44.079Z,20.70
2018-10-05T11:36:13.792Z,20.70
2018-10-05T11:38:44.021Z,20.70
2018-10-05T11:41:14.671Z,20.70
2018-10-05T11:43:44.899Z,20.70
2018-10-05T11:46:16.034Z,20.70
2018-10-05T11:48:46.733Z,20.70
2018-10-05T11:51:18.310Z,20.70
2018-10-05T11:53:48.687Z,20.60
2018-10-05T11:56:18.570Z,20.60
2018-10-05T11:58:48.786Z,20.60
2018-10-05T12:01:18.773Z,20.60
2018-10-05T12:03:48.689Z,20.50
2018-10-05T12:06:20.858Z,20.50
2018-10-05T12:08:51.214Z,20.50
2018-10-05T12:11:22.163Z,20.60
2018-10-05T12:13:52.252Z,20.60
2018-10-05T12:16:22.269Z,20.50
2018-10-05T12:18:52.207Z,20.50
2018-10-05T12:21:21.619Z,20.50
2018-10-05T12:23:51.747Z,20.50
2018-10-05T12:26:22.527Z,20.50
2018-10-05T12:28:52.398Z,20.50
2018-10-05T12:31:22.008Z,20.50
2018-10-05T12:33:51.450Z,20.50
2018-10-05T12:36:20.910Z,20.50
2018-10-05T12:38:50.370Z,20.50
2018-10-05T12:41:19.376Z,20.50
2018-10-05T12:43:48.941Z,20.50
2018-10-05T12:46:18.629Z,20.50
2018-10-05T12:48:49.704Z,20.50
2018-10-05T12:51:20.311Z,20.50
2018-10-05T12:53:49.747Z,20.60
2018-10-05T12:56:18.727Z,20.50
2018-10-05T12:58:47.680Z,20.50
2018-10-05T13:01:16.931Z,20.50
2018-10-05T13:03:46.840Z,20.50
2018-10-05T13:06:16.283Z,20.60
2018-10-05T13:08:45.320Z,20.60
2018-10-05T13:11:14.295Z,20.60
2018-10-05T13:13:44.288Z,20.70
2018-10-05T13:16:13.874Z,20.70
2018-10-05T13:18:44.958Z,20.70
2018-10-05T13:21:15.318Z,20.70
2018-10-05T13:23:44.485Z,20.70
2018-10-05T13:26:13.377Z,20.80
2018-10-05T13:28:44.044Z,20.80
2018-10-05T13:31:12.983Z,20.90
2018-10-05T13:33:42.288Z,20.90
2018-10-05T13:36:11.466Z,21.00
2018-10-05T13:38:41.085Z,21.00
2018-10-05T13:41:11.608Z,21.00
2018-10-05T13:43:40.880Z,21.10
2018-10-05T13:46:10.422Z,21.20
2018-10-05T13:48:40.119Z,21.40
2018-10-05T13:51:09.152Z,21.50
2018-10-05T13:53:38.924Z,21.50
2018-10-05T13:56:14.664Z,21.60
2018-10-05T13:58:43.954Z,21.70
2018-10-05T14:01:12.852Z,21.80
2018-10-05T14:03:41.839Z,21.90
2018-10-05T14:06:10.772Z,22.00
2018-10-05T14:08:41.144Z,22.10
2018-10-05T14:11:10.389Z,22.20
2018-10-05T14:13:39.835Z,22.20
2018-10-05T14:16:09.019Z,22.30
2018-10-05T14:18:37.925Z,22.40
2018-10-05T14:21:06.884Z,22.50
2018-10-05T14:23:36.965Z,22.60
2018-10-05T14:26:06.547Z,22.70
2018-10-05T14:28:36.698Z,22.80
2018-10-05T14:31:06.345Z,22.90
2018-10-05T14:33:35.710Z,23.00
2018-10-05T14:36:05.293Z,23.20
2018-10-05T14:38:34.770Z,23.30
2018-10-05T14:41:04.308Z,23.40
2018-10-05T14:43:34.118Z,23.50
2018-10-05T14:46:03.793Z,23.60
2018-10-05T14:48:32.859Z,23.70
2018-10-05T14:51:01.732Z,23.80
2018-10-05T14:53:31.408Z,23.80
2018-10-05T14:56:01.281Z,23.90
2018-10-05T14:58:30.999Z,24.00
2018-10-05T15:01:01.134Z,24.10
2018-10-05T15:03:30.610Z,24.20
2018-10-05T15:05:59.525Z,24.30
2018-10-05T15:08:29.845Z,24.50
2018-10-05T15:10:59.533Z,24.60
2018-10-05T15:13:30.128Z,24.70
2018-10-05T15:15:59.924Z,24.80
2018-10-05T15:18:29.418Z,24.80
2018-10-05T15:20:59.395Z,25.00
2018-10-05T15:23:28.995Z,25.10
2018-10-05T15:25:58.457Z,25.20
2018-10-05T15:28:28.207Z,25.30
2018-10-05T15:30:57.122Z,25.40
2018-10-05T15:33:26.256Z,25.60
2018-10-05T15:35:56.007Z,25.70
2018-10-05T15:38:25.690Z,25.90
2018-10-05T15:40:55.471Z,26.00
2018-10-05T15:43:25.184Z,26.20
2018-10-05T15:46:03.005Z,26.30
2018-10-05T15:48:32.700Z,26.40
2018-10-05T15:51:02.660Z,26.50
2018-10-05T15:53:32.613Z,26.60
2018-10-05T15:56:02.419Z,26.70
2018-10-05T15:58:31.865Z,26.70
2018-10-05T16:01:01.557Z,26.80
2018-10-05T16:03:32.226Z,26.90
2018-10-05T16:06:02.725Z,27.00
2018-10-05T16:08:32.133Z,27.20
2018-10-05T16:11:02.954Z,27.20
2018-10-05T16:13:32.831Z,27.30
2018-10-05T16:16:04.588Z,27.40
2018-10-05T16:18:33.732Z,27.40
2018-10-05T16:21:05.816Z,27.50
2018-10-05T16:23:34.979Z,27.40
2018-10-05T16:26:05.617Z,27.50
2018-10-05T16:28:35.731Z,27.50
2018-10-05T16:31:06.554Z,27.50
2018-10-05T16:33:39.622Z,27.50
2018-10-05T16:36:08.959Z,27.60
2018-10-05T16:38:38.099Z,27.70
2018-10-05T16:41:07.415Z,27.70
2018-10-05T16:43:36.700Z,27.70
2018-10-05T16:46:05.751Z,28.10
2018-10-05T16:48:35.485Z,28.10
2018-10-05T16:51:04.707Z,28.30
2018-10-05T16:53:34.072Z,28.30
2018-10-05T16:56:04.003Z,28.50
2018-10-05T16:58:33.077Z,28.40
2018-10-05T17:01:02.566Z,28.40
2018-10-05T17:03:32.412Z,28.50
2018-10-05T17:06:01.495Z,28.60
2018-10-05T17:08:32.488Z,28.60
2018-10-05T17:11:02.086Z,28.80
2018-10-05T17:13:31.446Z,28.80
2018-10-05T17:16:01.437Z,28.80
2018-10-05T17:18:31.461Z,28.90
2018-10-05T17:21:00.567Z,29.00
2018-10-05T17:23:29.856Z,28.90
2018-10-05T17:25:59.235Z,28.80
2018-10-05T17:28:29.259Z,28.80
2018-10-05T17:30:58.429Z,28.80
2018-10-05T17:33:27.367Z,28.80
2018-10-05T17:35:56.664Z,28.90
2018-10-05T17:38:26.212Z,28.90
2018-10-05T17:40:55.676Z,29.00
2018-10-05T17:43:24.578Z,29.10
2018-10-05T17:45:54.006Z,29.10
2018-10-05T17:48:22.906Z,29.20
2018-10-05T17:50:51.813Z,29.30
2018-10-05T17:53:20.721Z,29.30
2018-10-05T17:55:49.763Z,29.30
2018-10-05T17:58:21.710Z,29.40
2018-10-05T18:00:50.791Z,29.40
2018-10-05T18:03:19.926Z,29.40
2018-10-05T18:05:53.258Z,29.40
2018-10-05T18:08:22.225Z,29.50
2018-10-05T18:10:51.104Z,29.50
2018-10-05T18:13:20.000Z,29.40
2018-10-05T18:15:49.268Z,29.70
2018-10-05T18:18:18.207Z,29.60
2018-10-05T18:20:47.119Z,29.60
2018-10-05T18:23:16.235Z,29.60
2018-10-05T18:25:45.394Z,29.70
2018-10-05T18:28:14.537Z,29.70
2018-10-05T18:30:43.528Z,29.70
2018-10-05T18:33:12.673Z,29.80
2018-10-05T18:35:41.601Z,29.80
2018-10-05T18:38:10.797Z,29.70
2018-10-05T18:40:39.775Z,29.80
2018-10-05T18:43:08.651Z,29.90
2018-10-05T18:45:37.577Z,29.90
2018-10-05T18:48:06.711Z,29.90
2018-10-05T18:50:35.629Z,29.90
2018-10-05T18:53:04.551Z,29.90
2018-10-05T18:55:33.839Z,29.90
2018-10-05T18:58:03.280Z,29.90
2018-10-05T19:00:32.985Z,30.10
2018-10-05T19:03:02.171Z,30.10
2018-10-05T19:05:31.219Z,29.90
2018-10-05T19:08:00.994Z,29.90
2018-10-05T19:10:30.837Z,29.90
2018-10-05T19:13:00.341Z,30.10
2018-10-05T19:15:29.289Z,30.10
2018-10-05T19:17:58.496Z,30.10
2018-10-05T19:20:28.537Z,30.30
2018-10-05T19:22:57.730Z,30.10
2018-10-05T19:25:27.343Z,30.30
2018-10-05T19:27:56.865Z,30.30
2018-10-05T19:30:26.105Z,30.30
2018-10-05T19:32:55.488Z,30.30
2018-10-05T19:35:24.932Z,30.30
2018-10-05T19:37:54.520Z,30.40
2018-10-05T19:40:24.457Z,30.40
2018-10-05T19:42:53.459Z,30.40
2018-10-05T19:45:22.698Z,30.40
2018-10-05T19:47:51.703Z,30.60
2018-10-05T19:50:21.439Z,30.60
2018-10-05T19:52:51.256Z,30.60
2018-10-05T19:55:20.855Z,30.60
2018-10-05T19:57:50.332Z,30.60
2018-10-05T20:00:19.230Z,30.60
2018-10-05T20:02:48.166Z,30.60
2018-10-05T20:05:17.130Z,30.80
2018-10-05T20:07:47.353Z,30.70
2018-10-05T20:10:16.945Z,30.80
2018-10-05T20:12:46.980Z,30.80
2018-10-05T20:15:17.312Z,30.80
2018-10-05T20:17:48.387Z,31.00
2018-10-05T20:20:17.870Z,31.00
2018-10-05T20:22:47.473Z,31.00
2018-10-05T20:25:16.803Z,31.00
2018-10-05T20:27:45.818Z,31.00
2018-10-05T20:30:15.066Z,31.00
2018-10-05T20:32:44.076Z,31.00
2018-10-05T20:35:13.249Z,31.00
2018-10-05T20:37:42.884Z,31.00
2018-10-05T20:40:13.072Z,31.00
2018-10-05T20:42:42.444Z,31.10
2018-10-05T20:45:12.453Z,31.00
2018-10-05T20:47:41.776Z,31.10
2018-10-05T20:50:11.218Z,31.10
2018-10-05T20:52:42.680Z,31.30
2018-10-05T20:55:11.672Z,31.30
2018-10-05T20:57:40.931Z,31.30
2018-10-05T21:00:09.919Z,31.30
2018-10-05T21:02:39.766Z,31.40
2018-10-05T21:05:09.329Z,31.40
2018-10-05T21:07:38.756Z,31.40
2018-10-05T21:10:08.320Z,31.40
2018-10-05T21:12:37.839Z,31.40
2018-10-05T21:15:07.617Z,31.40
2018-10-05T21:17:37.201Z,31.40
2018-10-05T21:20:07.053Z,31.40
2018-10-05T21:22:36.289Z,31.40
2018-10-05T21:25:06.100Z,31.40
2018-10-05T21:27:35.807Z,31.40
2018-10-05T21:30:04.777Z,31.40
2018-10-05T21:32:33.733Z,31.40
2018-10-05T21:35:07.474Z,31.40
2018-10-05T21:38:01.864Z,31.40
2018-10-05T21:40:51.269Z,31.60
2018-10-05T21:43:23.036Z,31.60
2018-10-05T21:46:06.507Z,31.60
2018-10-05T21:48:36.474Z,31.60
2018-10-05T21:51:07.242Z,31.60
2018-10-05T21:53:37.146Z,31.60
2018-10-05T21:56:06.099Z,31.60
2018-10-05T21:58:35.861Z,31.70
2018-10-05T22:01:07.100Z,31.70
2018-10-05T22:03:38.421Z,31.70
2018-10-05T22:06:08.507Z,31.70
2018-10-05T22:08:38.123Z,31.70
2018-10-05T22:11:07.749Z,31.70
2018-10-05T22:13:37.562Z,31.70
2018-10-05T22:16:07.659Z,31.90
2018-10-05T22:18:37.274Z,31.70
2018-10-05T22:21:07.008Z,31.70
2018-10-05T22:23:36.541Z,31.70
2018-10-05T22:26:06.169Z,31.70
2018-10-05T22:28:35.890Z,31.90
2018-10-05T22:31:05.053Z,31.90
2018-10-05T22:33:34.535Z,31.90
2018-10-05T22:36:03.944Z,31.90
2018-10-05T22:38:33.007Z,31.90
2018-10-05T22:41:02.214Z,31.90
2018-10-05T22:43:31.556Z,31.90
2018-10-05T22:46:00.501Z,31.90
2018-10-05T22:48:29.420Z,31.90
2018-10-05T22:50:58.324Z,31.90
2018-10-05T22:53:27.187Z,31.90
2018-10-05T22:55:56.057Z,31.90
2018-10-05T22:58:25.220Z,31.90
2018-10-05T23:00:55.314Z,31.90
2018-10-05T23:03:24.968Z,31.90
2018-10-05T23:05:54.204Z,31.90
2018-10-05T23:08:23.789Z,31.90
2018-10-05T23:10:53.067Z,32.00
2018-10-05T23:13:23.184Z,31.90
2018-10-05T23:15:52.622Z,32.00
2018-10-05T23:18:22.128Z,32.00
2018-10-05T23:20:51.024Z,32.00
2018-10-05T23:23:20.402Z,32.00
2018-10-05T23:25:49.332Z,32.00
2018-10-05T23:28:18.174Z,32.00
2018-10-05T23:30:47.129Z,32.20
2018-10-05T23:33:16.446Z,32.20
2018-10-05T23:35:45.914Z,32.20
2018-10-05T23:38:15.582Z,32.20
2018-10-05T23:40:45.023Z,32.00
2018-10-05T23:43:14.464Z,32.20
2018-10-05T23:45:43.865Z,32.20
2018-10-05T23:48:13.499Z,32.20
2018-10-05T23:50:43.121Z,32.30
2018-10-05T23:53:13.104Z,32.30
2018-10-05T23:55:42.113Z,32.30
2018-10-05T23:58:11.527Z,32.30
